x

East Scotia Slope (44137) Wave Buoy

10:00pm - Thu 29th Sep 2016 All times are EDT. -4 hours from GMT.

  • Sig Wave height 10.5ft
  • Peak Period 9s
  • Wind
    20mph, 29mph gusts
  • Sea Temp 71°f
  • Air Temp 63°f
  • Sea Pressure 1029mb
  • East Scotia Slope
  • East Scotia Slope

More Historic Weather Station data

Upgrade to MSW Pro to gain access to the past 30 days of data for over 8000 Wavebouys and Weather Stations around the globe.

Join Pro

Comparision Forecast

View Surf forecast
   
Thu 09/29 10:00pm 10.5ft 9s 20 29 mph 1029mb 71f 63f
9:00pm 11ft 9s 25 31 mph 1028.6mb 71f 63f
8:00pm 12ft 9s 27 34 mph 1027.9mb 72f 64f
7:00pm 12.5ft 8s 31 38 mph 1027.2mb 72f 63f
6:00pm 12ft 8s 31 38 mph 1026.5mb 72f 62f
5:00pm 13ft 8s 31 36 mph 1025.6mb 71f 62f
4:00pm 13ft 9s 31 38 mph 1024.8mb 70f 63f
3:00pm 13ft 8s 34 38 mph 1024mb 68f 63f
2:00pm 11ft 8s 31 38 mph 1023.6mb 68f 64f
1:00pm 11.5ft 8s 29 36 mph 1023mb 68f 64f
12:00pm 11ft 7s 31 40 mph 1022.4mb 68f 64f
11:00am 11ft 7s 31 38 mph 1021.5mb 68f 66f
10:00am 10ft 6s 29 40 mph 1020.9mb 68f 67f
9:00am 10ft 6s 29 36 mph 1019.8mb 69f 67f
8:00am 8.5ft 6s 31 36 mph 1018.6mb 69f 68f
6:00am 7.5ft 8s 27 34 mph 1018mb 69f 68f
5:00am 7ft 8s 25 31 mph 1017.9mb 69f 69f
4:00am 6.5ft 8s 27 31 mph 1018.6mb 69f 68f
3:00am 6.5ft 8s 22 27 mph 1019.5mb 69f 68f
2:00am 6ft 8s 20 22 mph 1020.8mb 69f 68f
1:00am 6ft 8s 13 16 mph 1022.2mb 68f 69f
12:00am 5.5ft 8s 11 13 mph 1023.1mb 67f 68f
Wed 09/28 11:00pm 5ft 8s 11 16 mph 1023.5mb 67f 67f
10:00pm 5ft 7s 9 13 mph 1023.9mb 68f 68f
9:00pm 5ft 6s 9 11 mph 1024mb 68f 69f
8:00pm 5ft 7s 9 11 mph 1024.1mb 68f 69f
7:00pm 5ft 6s 4 9 mph 1023.8mb 68f 68f
6:00pm 5.5ft 7s 2 4 mph 1023.7mb 68f 68f
5:00pm 5.5ft 7s 4
mph
1023.3mb 69f 68f
4:00pm 6ft 8s 7
mph
1023.2mb 69f 67f
3:00pm 6ft 8s 9 11 mph 1023.4mb 69f 67f
2:00pm 6.5ft 8s 11 16 mph 1023.7mb 69f 67f
1:00pm 5.5ft 9s 18 22 mph 1023.5mb 69f 68f
12:00pm 5.5ft 8s 11 13 mph 1023.3mb 69f 69f
11:00am 5.5ft 9s 9 11 mph 1023.1mb 68f 69f
10:00am 5ft 8s 11 13 mph 1023.2mb 68f 68f
9:00am 5ft 9s 4 7 mph 1022.8mb 68f 67f
8:00am 5ft 8s 9
mph
1022.6mb 68f 67f
7:00am 6ft 8s 4 7 mph 1021.9mb 68f 67f
6:00am 6ft 7s 7 9 mph 1021.1mb 68f 67f
5:00am 6ft 7s 22 27 mph 1020.4mb 68f 67f
4:00am 6ft 7s 13 16 mph 1019.8mb 68f 69f
3:00am 6ft 7s 20 25 mph 1019.1mb 68f 69f
2:00am 6ft 6s 22 25 mph 1018.8mb 68f 70f
1:00am 5.5ft 6s 22 27 mph 1018.6mb 68f 70f
12:00am 5ft 6s 25 29 mph 1018.1mb 68f 70f
Tue 09/27 11:00pm 5ft 5s 22 29 mph 1017.9mb 68f 70f
10:00pm 4.5ft 5s 22 27 mph 1017.8mb 68f 70f
9:00pm 3.5ft 6s 20 22 mph 1017.9mb 68f 69f
8:00pm 3ft 6s 20 22 mph 1018.4mb 68f 69f
7:00pm 3ft 11s 18 22 mph 1018.2mb 68f 68f
6:00pm 3.5ft 11s 13 16 mph 1018.2mb 68f 68f
5:00pm 3.5ft 6s 11 16 mph 1018mb 68f 67f
4:00pm 3.5ft 6s 9 11 mph 1018mb 69f 66f
3:00pm 3.5ft 5s 9 11 mph 1018.2mb 69f 65f
2:00pm 4.5ft 6s 11 13 mph 1018mb 69f 65f
1:00pm 4.5ft 5s 18 22 mph 1018.3mb 70f 65f
12:00pm 4.5ft 6s 18 22 mph 1018.8mb 69f 64f
11:00am 4.5ft 6s 16 20 mph 1018.6mb 69f 63f
10:00am 5ft 6s 18 22 mph 1019mb 69f 63f
9:00am 5ft 5s 18 22 mph 1019.1mb 68f 62f
8:00am 5ft 6s 18 22 mph 1018.9mb 68f 62f
6:00am 5ft 5s 20 27 mph 1018.1mb 68f 61f
5:00am 5ft 7s 20 25 mph 1018.1mb 67f 60f
4:00am 5ft 6s 20 25 mph 1018.1mb 68f 60f
3:00am 4.5ft 5s 22 27 mph 1018mb 68f 60f
2:00am 4.5ft 6s 20 25 mph 1018.1mb 68f 60f
1:00am 4.5ft 6s 18 20 mph 1018.1mb 68f 60f
12:00am 5ft 6s 13 18 mph 1018.1mb 69f 60f
Mon 09/26 11:00pm 5ft 6s 13 16 mph 1018.7mb 69f 60f
10:00pm 5ft 7s 16 22 mph 1018.9mb 69f 60f
9:00pm 5.5ft 7s 18 20 mph 1018.8mb 69f 60f
8:00pm 6ft 7s 18 22 mph 1018.6mb 69f 59f
7:00pm 6ft 7s 16 20 mph 1018.3mb 69f 58f
6:00pm 7ft 7s 16 20 mph 1017.5mb 68f 58f
5:00pm 7ft 7s 16 22 mph 1016.7mb 68f 58f
4:00pm 7.5ft 7s 18 25 mph 1016.4mb 68f 58f
3:00pm 8ft 7s 25 29 mph 1016.7mb 68f 59f
2:00pm 8.5ft 8s 25 29 mph 1016.6mb 68f 58f
1:00pm 9ft 7s 27 31 mph 1016.2mb 68f 58f
12:00pm 9ft 7s 27 34 mph 1016.5mb 68f 57f
11:00am  -   -  29
mph
- - -
10:00am 9ft 7s 27 31 mph 1015.8mb 68f 59f
9:00am 9ft 8s 22 36 mph 1015.6mb 68f 57f
8:00am 8ft 8s 27 31 mph 1015mb 68f 57f
7:00am 8.5ft 8s 25 34 mph 1014.4mb 68f 58f
5:00am 8.5ft 8s 25 31 mph 1013.2mb 68f 58f
4:00am 9ft 7s 27 34 mph 1012.9mb 68f 58f